sensor_id;sensor_type;location;lat;lon;timestamp;temperature;humidity
7934;DHT22;4012;48.896;9.192;2023-03-20T00:01:15;10.20;99.90
7934;DHT22;4012;48.896;9.192;2023-03-20T00:03:42;10.20;99.90
7934;DHT22;4012;48.896;9.192;2023-03-20T00:06:22;10.20;99.90
7934;DHT22;4012;48.896;9.192;2023-03-20T00:08:49;10.10;99.90
7934;DHT22;4012;48.896;9.192;2023-03-20T00:11:40;10.10;99.90
7934;DHT22;4012;48.896;9.192;2023-03-20T00:14:09;10.20;99.90
7934;DHT22;4012;48.896;9.192;2023-03-20T00:16:38;10.20;99.90
7934;DHT22;4012;48.896;9.192;2023-03-20T00:19:05;10.20;99.90
7934;DHT22;4012;48.896;9.192;2023-03-20T00:21:32;10.20;99.90
7934;DHT22;4012;48.896;9.192;2023-03-20T00:23:58;10.20;99.90
7934;DHT22;4012;48.896;9.192;2023-03-20T00:26:35;10.20;99.90
7934;DHT22;4012;48.896;9.192;2023-03-20T00:29:04;10.20;99.90
7934;DHT22;4012;48.896;9.192;2023-03-20T00:31:40;10.20;99.90
7934;DHT22;4012;48.896;9.192;2023-03-20T00:34:11;10.20;99.90
7934;DHT22;4012;48.896;9.192;2023-03-20T00:36:37;10.20;99.90
7934;DHT22;4012;48.896;9.192;2023-03-20T00:39:03;10.20;99.90
7934;DHT22;4012;48.896;9.192;2023-03-20T00:46:57;10.20;99.90
7934;DHT22;4012;48.896;9.192;2023-03-20T00:49:35;10.20;99.90
7934;DHT22;4012;48.896;9.192;2023-03-20T00:52:05;10.30;99.90
7934;DHT22;4012;48.896;9.192;2023-03-20T00:54:31;10.20;99.90
7934;DHT22;4012;48.896;9.192;2023-03-20T00:57:03;10.20;99.90
7934;DHT22;4012;48.896;9.192;2023-03-20T00:59:33;10.20;99.90
7934;DHT22;4012;48.896;9.192;2023-03-20T01:02:01;10.30;99.90
7934;DHT22;4012;48.896;9.192;2023-03-20T01:04:33;10.30;99.90
7934;DHT22;4012;48.896;9.192;2023-03-20T01:06:59;10.40;99.90
7934;DHT22;4012;48.896;9.192;2023-03-20T01:09:25;10.30;99.90
7934;DHT22;4012;48.896;9.192;2023-03-20T01:11:51;10.30;99.90
7934;DHT22;4012;48.896;9.192;2023-03-20T01:14:17;10.30;99.90
7934;DHT22;4012;48.896;9.192;2023-03-20T01:16:43;10.30;99.90
7934;DHT22;4012;48.896;9.192;2023-03-20T01:19:13;10.30;99.90
7934;DHT22;4012;48.896;9.192;2023-03-20T01:21:40;10.30;99.90
7934;DHT22;4012;48.896;9.192;2023-03-20T01:24:06;10.20;99.90
7934;DHT22;4012;48.896;9.192;2023-03-20T01:26:39;10.20;99.90
7934;DHT22;4012;48.896;9.192;2023-03-20T01:29:22;10.30;99.90
7934;DHT22;4012;48.896;9.192;2023-03-20T01:31:49;10.30;99.90
7934;DHT22;4012;48.896;9.192;2023-03-20T01:34:15;10.30;99.90
7934;DHT22;4012;48.896;9.192;2023-03-20T01:36:46;10.30;99.90
7934;DHT22;4012;48.896;9.192;2023-03-20T01:39:13;10.30;99.90
7934;DHT22;4012;48.896;9.192;2023-03-20T01:41:38;10.30;99.90
7934;DHT22;4012;48.896;9.192;2023-03-20T01:44:17;10.30;99.90
7934;DHT22;4012;48.896;9.192;2023-03-20T01:46:43;10.30;99.90
7934;DHT22;4012;48.896;9.192;2023-03-20T01:51:45;10.30;99.90
7934;DHT22;4012;48.896;9.192;2023-03-20T01:56:59;10.30;99.90
7934;DHT22;4012;48.896;9.192;2023-03-20T01:59:36;10.40;99.90
7934;DHT22;4012;48.896;9.192;2023-03-20T02:02:04;10.40;99.90
7934;DHT22;4012;48.896;9.192;2023-03-20T02:04:37;10.30;99.90
7934;DHT22;4012;48.896;9.192;2023-03-20T02:07:04;10.30;99.90
7934;DHT22;4012;48.896;9.192;2023-03-20T02:09:31;10.20;99.90
7934;DHT22;4012;48.896;9.192;2023-03-20T02:11:58;10.20;99.90
7934;DHT22;4012;48.896;9.192;2023-03-20T02:14:25;10.10;99.90
7934;DHT22;4012;48.896;9.192;2023-03-20T02:16:51;10.10;99.90
7934;DHT22;4012;48.896;9.192;2023-03-20T02:31:24;10.30;99.90
7934;DHT22;4012;48.896;9.192;2023-03-20T02:44:43;10.20;99.90
7934;DHT22;4012;48.896;9.192;2023-03-20T02:47:15;10.20;99.90
7934;DHT22;4012;48.896;9.192;2023-03-20T02:53:09;10.10;99.90
7934;DHT22;4012;48.896;9.192;2023-03-20T02:58:21;10.10;99.90
7934;DHT22;4012;48.896;9.192;2023-03-20T03:01:00;10.10;99.90
7934;DHT22;4012;48.896;9.192;2023-03-20T03:03:36;10.10;99.90
7934;DHT22;4012;48.896;9.192;2023-03-20T03:06:30;10.00;99.90
7934;DHT22;4012;48.896;9.192;2023-03-20T03:12:22;10.10;99.90
7934;DHT22;4012;48.896;9.192;2023-03-20T03:14:56;10.00;99.90
7934;DHT22;4012;48.896;9.192;2023-03-20T03:17:27;10.00;99.90
7934;DHT22;4012;48.896;9.192;2023-03-20T03:19:59;10.00;99.90
7934;DHT22;4012;48.896;9.192;2023-03-20T03:22:26;10.00;99.90
7934;DHT22;4012;48.896;9.192;2023-03-20T03:24:52;10.10;99.90
7934;DHT22;4012;48.896;9.192;2023-03-20T03:27:36;10.10;99.90
7934;DHT22;4012;48.896;9.192;2023-03-20T03:30:26;10.00;99.90
7934;DHT22;4012;48.896;9.192;2023-03-20T03:33:17;10.00;99.90
7934;DHT22;4012;48.896;9.192;2023-03-20T03:35:45;9.90;99.90
7934;DHT22;4012;48.896;9.192;2023-03-20T03:38:36;10.00;99.90
7934;DHT22;4012;48.896;9.192;2023-03-20T03:41:14;10.00;99.90
7934;DHT22;4012;48.896;9.192;2023-03-20T03:47:11;10.00;99.90
7934;DHT22;4012;48.896;9.192;2023-03-20T03:49:19;10.00;99.90
7934;DHT22;4012;48.896;9.192;2023-03-20T03:51:49;10.00;99.90
7934;DHT22;4012;48.896;9.192;2023-03-20T03:54:22;10.10;99.90
7934;DHT22;4012;48.896;9.192;2023-03-20T03:56:50;10.00;99.90
7934;DHT22;4012;48.896;9.192;2023-03-20T03:59:30;10.00;99.90
7934;DHT22;4012;48.896;9.192;2023-03-20T04:01:59;10.00;99.90
7934;DHT22;4012;48.896;9.192;2023-03-20T04:04:29;10.00;99.90
7934;DHT22;4012;48.896;9.192;2023-03-20T04:06:56;10.00;99.90
7934;DHT22;4012;48.896;9.192;2023-03-20T04:09:22;10.00;99.90
7934;DHT22;4012;48.896;9.192;2023-03-20T04:11:50;10.00;99.90
7934;DHT22;4012;48.896;9.192;2023-03-20T04:14:17;10.00;99.90
7934;DHT22;4012;48.896;9.192;2023-03-20T04:16:42;10.00;99.90
7934;DHT22;4012;48.896;9.192;2023-03-20T04:19:08;9.90;99.90
7934;DHT22;4012;48.896;9.192;2023-03-20T04:21:34;9.90;99.90
7934;DHT22;4012;48.896;9.192;2023-03-20T04:24:00;9.90;99.90
7934;DHT22;4012;48.896;9.192;2023-03-20T04:26:25;9.90;99.90
7934;DHT22;4012;48.896;9.192;2023-03-20T04:28:51;9.90;99.90
7934;DHT22;4012;48.896;9.192;2023-03-20T04:31:17;9.90;99.90
7934;DHT22;4012;48.896;9.192;2023-03-20T04:33:43;9.90;99.90
7934;DHT22;4012;48.896;9.192;2023-03-20T04:36:09;9.90;99.90
7934;DHT22;4012;48.896;9.192;2023-03-20T04:38:35;9.90;99.90
7934;DHT22;4012;48.896;9.192;2023-03-20T04:41:01;9.90;99.90
7934;DHT22;4012;48.896;9.192;2023-03-20T04:43:27;9.90;99.90
7934;DHT22;4012;48.896;9.192;2023-03-20T04:45:52;10.00;99.90
7934;DHT22;4012;48.896;9.192;2023-03-20T04:48:18;9.90;99.90
7934;DHT22;4012;48.896;9.192;2023-03-20T04:50:43;9.90;99.90
7934;DHT22;4012;48.896;9.192;2023-03-20T04:53:13;9.90;99.90
7934;DHT22;4012;48.896;9.192;2023-03-20T04:55:39;9.90;99.90
7934;DHT22;4012;48.896;9.192;2023-03-20T04:58:05;9.90;99.90
7934;DHT22;4012;48.896;9.192;2023-03-20T05:00:31;9.90;99.90
7934;DHT22;4012;48.896;9.192;2023-03-20T05:02:57;10.00;99.90
7934;DHT22;4012;48.896;9.192;2023-03-20T05:05:22;9.90;99.90
7934;DHT22;4012;48.896;9.192;2023-03-20T05:07:48;9.90;99.90
7934;DHT22;4012;48.896;9.192;2023-03-20T05:10:14;10.00;99.90
7934;DHT22;4012;48.896;9.192;2023-03-20T05:12:39;10.00;99.90
7934;DHT22;4012;48.896;9.192;2023-03-20T05:15:06;10.00;99.90
7934;DHT22;4012;48.896;9.192;2023-03-20T05:17:31;9.90;99.90
7934;DHT22;4012;48.896;9.192;2023-03-20T05:19:57;9.90;99.90
7934;DHT22;4012;48.896;9.192;2023-03-20T05:22:24;9.90;99.90
7934;DHT22;4012;48.896;9.192;2023-03-20T05:24:50;9.90;99.90
7934;DHT22;4012;48.896;9.192;2023-03-20T05:27:16;9.90;99.90
7934;DHT22;4012;48.896;9.192;2023-03-20T05:29:41;10.00;99.90
7934;DHT22;4012;48.896;9.192;2023-03-20T05:32:07;9.90;99.90
7934;DHT22;4012;48.896;9.192;2023-03-20T05:34:33;9.90;99.90
7934;DHT22;4012;48.896;9.192;2023-03-20T05:36:58;9.90;99.90
7934;DHT22;4012;48.896;9.192;2023-03-20T05:39:24;10.00;99.90
7934;DHT22;4012;48.896;9.192;2023-03-20T05:41:49;9.90;99.90
7934;DHT22;4012;48.896;9.192;2023-03-20T05:44:15;9.90;99.90
7934;DHT22;4012;48.896;9.192;2023-03-20T05:46:41;9.90;99.90
7934;DHT22;4012;48.896;9.192;2023-03-20T05:49:06;10.00;99.90
7934;DHT22;4012;48.896;9.192;2023-03-20T05:51:32;10.00;99.90
7934;DHT22;4012;48.896;9.192;2023-03-20T05:53:58;10.00;99.90
7934;DHT22;4012;48.896;9.192;2023-03-20T05:56:23;10.00;99.90
7934;DHT22;4012;48.896;9.192;2023-03-20T05:58:49;10.00;99.90
7934;DHT22;4012;48.896;9.192;2023-03-20T06:01:16;10.00;99.90
7934;DHT22;4012;48.896;9.192;2023-03-20T06:03:49;10.00;99.90
7934;DHT22;4012;48.896;9.192;2023-03-20T06:06:15;10.00;99.90
7934;DHT22;4012;48.896;9.192;2023-03-20T06:08:41;10.00;99.90
7934;DHT22;4012;48.896;9.192;2023-03-20T06:11:08;10.00;99.90
7934;DHT22;4012;48.896;9.192;2023-03-20T06:13:33;10.10;99.90
7934;DHT22;4012;48.896;9.192;2023-03-20T06:15:59;10.20;99.90
7934;DHT22;4012;48.896;9.192;2023-03-20T06:18:25;10.20;99.90
7934;DHT22;4012;48.896;9.192;2023-03-20T06:20:56;10.20;99.90
7934;DHT22;4012;48.896;9.192;2023-03-20T06:23:22;10.20;99.90
7934;DHT22;4012;48.896;9.192;2023-03-20T06:25:47;10.10;99.90
7934;DHT22;4012;48.896;9.192;2023-03-20T06:28:13;10.20;99.90
7934;DHT22;4012;48.896;9.192;2023-03-20T06:30:39;10.20;99.90
7934;DHT22;4012;48.896;9.192;2023-03-20T06:33:08;10.20;99.90
7934;DHT22;4012;48.896;9.192;2023-03-20T06:35:34;10.20;99.90
7934;DHT22;4012;48.896;9.192;2023-03-20T06:37:59;10.30;99.90
7934;DHT22;4012;48.896;9.192;2023-03-20T06:40:26;10.30;99.90
7934;DHT22;4012;48.896;9.192;2023-03-20T06:42:54;10.40;99.90
7934;DHT22;4012;48.896;9.192;2023-03-20T06:45:21;10.50;99.90
7934;DHT22;4012;48.896;9.192;2023-03-20T06:47:46;10.60;99.90
7934;DHT22;4012;48.896;9.192;2023-03-20T06:50:13;10.70;99.90
7934;DHT22;4012;48.896;9.192;2023-03-20T06:52:39;10.80;99.90
7934;DHT22;4012;48.896;9.192;2023-03-20T06:55:06;10.70;99.90
7934;DHT22;4012;48.896;9.192;2023-03-20T06:57:32;10.80;99.90
7934;DHT22;4012;48.896;9.192;2023-03-20T06:59:58;10.90;99.90
7934;DHT22;4012;48.896;9.192;2023-03-20T07:02:24;11.00;99.90
7934;DHT22;4012;48.896;9.192;2023-03-20T07:04:50;11.20;99.90
7934;DHT22;4012;48.896;9.192;2023-03-20T07:07:15;11.30;99.90
7934;DHT22;4012;48.896;9.192;2023-03-20T07:09:41;11.50;99.90
7934;DHT22;4012;48.896;9.192;2023-03-20T07:12:12;11.70;99.90
7934;DHT22;4012;48.896;9.192;2023-03-20T07:14:39;11.80;99.90
7934;DHT22;4012;48.896;9.192;2023-03-20T07:17:06;11.70;99.90
7934;DHT22;4012;48.896;9.192;2023-03-20T07:19:33;11.80;99.90
7934;DHT22;4012;48.896;9.192;2023-03-20T07:22:00;11.70;99.90
7934;DHT22;4012;48.896;9.192;2023-03-20T07:24:27;11.50;99.90
7934;DHT22;4012;48.896;9.192;2023-03-20T07:26:52;11.50;99.90
7934;DHT22;4012;48.896;9.192;2023-03-20T07:29:18;11.10;99.90
7934;DHT22;4012;48.896;9.192;2023-03-20T07:31:44;11.00;99.90
7934;DHT22;4012;48.896;9.192;2023-03-20T07:34:10;10.90;99.90
7934;DHT22;4012;48.896;9.192;2023-03-20T07:36:36;11.00;99.90
7934;DHT22;4012;48.896;9.192;2023-03-20T07:39:02;11.10;99.90
7934;DHT22;4012;48.896;9.192;2023-03-20T07:41:28;11.20;99.90
7934;DHT22;4012;48.896;9.192;2023-03-20T07:43:53;11.30;99.90
7934;DHT22;4012;48.896;9.192;2023-03-20T07:46:19;11.50;99.90
7934;DHT22;4012;48.896;9.192;2023-03-20T07:48:45;11.60;99.90
7934;DHT22;4012;48.896;9.192;2023-03-20T07:51:10;11.50;99.90
7934;DHT22;4012;48.896;9.192;2023-03-20T07:53:36;11.60;99.90
7934;DHT22;4012;48.896;9.192;2023-03-20T07:56:01;11.80;99.90
7934;DHT22;4012;48.896;9.192;2023-03-20T07:58:27;11.90;99.90
7934;DHT22;4012;48.896;9.192;2023-03-20T08:00:52;11.80;99.90
7934;DHT22;4012;48.896;9.192;2023-03-20T08:03:18;12.10;99.90
7934;DHT22;4012;48.896;9.192;2023-03-20T08:05:43;12.00;99.90
7934;DHT22;4012;48.896;9.192;2023-03-20T08:08:09;12.20;99.90
7934;DHT22;4012;48.896;9.192;2023-03-20T08:10:35;12.00;99.90
7934;DHT22;4012;48.896;9.192;2023-03-20T08:13:00;11.50;99.90
7934;DHT22;4012;48.896;9.192;2023-03-20T08:15:26;11.70;99.90
7934;DHT22;4012;48.896;9.192;2023-03-20T08:17:51;12.00;99.90
7934;DHT22;4012;48.896;9.192;2023-03-20T08:20:17;12.00;99.90
7934;DHT22;4012;48.896;9.192;2023-03-20T08:22:44;12.00;99.90
7934;DHT22;4012;48.896;9.192;2023-03-20T08:25:10;11.70;99.90
7934;DHT22;4012;48.896;9.192;2023-03-20T08:27:36;11.40;99.90
7934;DHT22;4012;48.896;9.192;2023-03-20T08:30:03;11.50;99.90
7934;DHT22;4012;48.896;9.192;2023-03-20T08:32:29;11.60;99.90
7934;DHT22;4012;48.896;9.192;2023-03-20T08:34:54;12.00;99.90
7934;DHT22;4012;48.896;9.192;2023-03-20T08:37:21;12.30;99.90
7934;DHT22;4012;48.896;9.192;2023-03-20T08:39:47;12.60;99.90
7934;DHT22;4012;48.896;9.192;2023-03-20T08:42:13;12.70;99.90
7934;DHT22;4012;48.896;9.192;2023-03-20T08:44:39;12.80;99.90
7934;DHT22;4012;48.896;9.192;2023-03-20T08:47:04;13.10;99.90
7934;DHT22;4012;48.896;9.192;2023-03-20T08:49:32;13.40;99.90
7934;DHT22;4012;48.896;9.192;2023-03-20T08:51:59;13.70;99.90
7934;DHT22;4012;48.896;9.192;2023-03-20T08:54:25;12.90;99.90
7934;DHT22;4012;48.896;9.192;2023-03-20T08:56:50;12.90;99.90
7934;DHT22;4012;48.896;9.192;2023-03-20T08:59:16;13.50;99.90
7934;DHT22;4012;48.896;9.192;2023-03-20T09:01:43;14.60;99.90
7934;DHT22;4012;48.896;9.192;2023-03-20T09:04:10;16.20;99.90
7934;DHT22;4012;48.896;9.192;2023-03-20T09:06:36;17.30;99.90
7934;DHT22;4012;48.896;9.192;2023-03-20T09:09:02;17.20;99.90
7934;DHT22;4012;48.896;9.192;2023-03-20T09:11:28;17.00;99.90
7934;DHT22;4012;48.896;9.192;2023-03-20T09:13:53;17.20;99.90
7934;DHT22;4012;48.896;9.192;2023-03-20T09:16:19;16.60;99.90
7934;DHT22;4012;48.896;9.192;2023-03-20T09:18:45;16.70;99.90
7934;DHT22;4012;48.896;9.192;2023-03-20T09:21:10;15.70;99.90
7934;DHT22;4012;48.896;9.192;2023-03-20T09:23:36;15.40;99.90
7934;DHT22;4012;48.896;9.192;2023-03-20T09:26:02;15.70;99.90
7934;DHT22;4012;48.896;9.192;2023-03-20T09:28:27;15.40;99.90
7934;DHT22;4012;48.896;9.192;2023-03-20T09:30:57;14.80;99.90
7934;DHT22;4012;48.896;9.192;2023-03-20T09:33:23;14.80;99.90
7934;DHT22;4012;48.896;9.192;2023-03-20T09:35:49;14.70;99.90
7934;DHT22;4012;48.896;9.192;2023-03-20T09:38:15;14.40;99.90
7934;DHT22;4012;48.896;9.192;2023-03-20T09:40:53;13.90;99.90
7934;DHT22;4012;48.896;9.192;2023-03-20T09:46:18;14.10;99.90
7934;DHT22;4012;48.896;9.192;2023-03-20T09:48:58;14.70;99.90
7934;DHT22;4012;48.896;9.192;2023-03-20T09:51:30;14.70;99.90
7934;DHT22;4012;48.896;9.192;2023-03-20T09:54:02;14.60;99.90
7934;DHT22;4012;48.896;9.192;2023-03-20T09:56:30;14.50;99.90
7934;DHT22;4012;48.896;9.192;2023-03-20T09:58:58;14.10;99.90
7934;DHT22;4012;48.896;9.192;2023-03-20T10:01:34;13.60;99.90
7934;DHT22;4012;48.896;9.192;2023-03-20T10:04:07;13.40;99.90
7934;DHT22;4012;48.896;9.192;2023-03-20T10:06:34;13.10;99.90
7934;DHT22;4012;48.896;9.192;2023-03-20T10:08:59;13.10;99.90
7934;DHT22;4012;48.896;9.192;2023-03-20T10:11:44;13.30;99.90
7934;DHT22;4012;48.896;9.192;2023-03-20T10:14:27;13.50;99.90
7934;DHT22;4012;48.896;9.192;2023-03-20T10:19:56;14.10;99.90
7934;DHT22;4012;48.896;9.192;2023-03-20T10:22:33;14.60;99.90
7934;DHT22;4012;48.896;9.192;2023-03-20T10:25:19;14.50;99.90
7934;DHT22;4012;48.896;9.192;2023-03-20T10:27:57;14.40;99.90
7934;DHT22;4012;48.896;9.192;2023-03-20T10:30:48;14.50;99.90
7934;DHT22;4012;48.896;9.192;2023-03-20T10:33:28;14.00;99.90
7934;DHT22;4012;48.896;9.192;2023-03-20T10:38:52;13.10;99.90
7934;DHT22;4012;48.896;9.192;2023-03-20T10:41:23;13.00;99.90
7934;DHT22;4012;48.896;9.192;2023-03-20T10:43:51;12.90;99.90
7934;DHT22;4012;48.896;9.192;2023-03-20T10:46:30;12.80;99.90
7934;DHT22;4012;48.896;9.192;2023-03-20T10:49:04;12.80;99.90
7934;DHT22;4012;48.896;9.192;2023-03-20T10:51:54;13.10;99.90
7934;DHT22;4012;48.896;9.192;2023-03-20T10:54:42;13.20;99.90
7934;DHT22;4012;48.896;9.192;2023-03-20T10:57:32;13.20;99.90
7934;DHT22;4012;48.896;9.192;2023-03-20T10:59:58;13.10;99.90
7934;DHT22;4012;48.896;9.192;2023-03-20T11:02:27;13.20;99.90
7934;DHT22;4012;48.896;9.192;2023-03-20T11:04:53;13.00;99.90
7934;DHT22;4012;48.896;9.192;2023-03-20T11:07:24;13.10;99.90
7934;DHT22;4012;48.896;9.192;2023-03-20T11:12:37;13.80;99.90
7934;DHT22;4012;48.896;9.192;2023-03-20T11:17:39;15.00;99.90
7934;DHT22;4012;48.896;9.192;2023-03-20T11:20:06;15.20;99.90
7934;DHT22;4012;48.896;9.192;2023-03-20T11:22:33;15.10;99.90
7934;DHT22;4012;48.896;9.192;2023-03-20T11:25:00;14.80;99.90
7934;DHT22;4012;48.896;9.192;2023-03-20T11:27:32;14.70;99.90
7934;DHT22;4012;48.896;9.192;2023-03-20T11:30:03;14.40;99.90
7934;DHT22;4012;48.896;9.192;2023-03-20T11:32:44;14.00;99.90
7934;DHT22;4012;48.896;9.192;2023-03-20T11:35:30;13.90;99.90
7934;DHT22;4012;48.896;9.192;2023-03-20T11:38:28;13.90;99.90
7934;DHT22;4012;48.896;9.192;2023-03-20T11:40:54;13.70;99.90
7934;DHT22;4012;48.896;9.192;2023-03-20T11:43:25;14.10;99.90
7934;DHT22;4012;48.896;9.192;2023-03-20T11:45:56;14.10;99.90
7934;DHT22;4012;48.896;9.192;2023-03-20T11:48:24;14.10;99.90
7934;DHT22;4012;48.896;9.192;2023-03-20T11:50:58;14.00;99.90
7934;DHT22;4012;48.896;9.192;2023-03-20T11:53:33;14.20;99.90
7934;DHT22;4012;48.896;9.192;2023-03-20T11:58:38;14.30;99.90
7934;DHT22;4012;48.896;9.192;2023-03-20T12:01:07;14.30;99.90
7934;DHT22;4012;48.896;9.192;2023-03-20T12:03:49;14.50;99.90
7934;DHT22;4012;48.896;9.192;2023-03-20T12:06:19;14.10;99.90
7934;DHT22;4012;48.896;9.192;2023-03-20T12:09:08;14.10;99.90
7934;DHT22;4012;48.896;9.192;2023-03-20T12:19:58;14.40;99.90
7934;DHT22;4012;48.896;9.192;2023-03-20T12:22:30;14.30;99.90
7934;DHT22;4012;48.896;9.192;2023-03-20T12:25:19;14.20;99.90
7934;DHT22;4012;48.896;9.192;2023-03-20T12:27:52;14.50;99.90
7934;DHT22;4012;48.896;9.192;2023-03-20T12:30:28;14.70;99.90
7934;DHT22;4012;48.896;9.192;2023-03-20T12:33:05;15.20;99.90
7934;DHT22;4012;48.896;9.192;2023-03-20T12:35:37;14.90;99.90
7934;DHT22;4012;48.896;9.192;2023-03-20T12:38:28;14.70;99.90
7934;DHT22;4012;48.896;9.192;2023-03-20T12:41:21;14.60;99.90
7934;DHT22;4012;48.896;9.192;2023-03-20T12:44:19;14.80;99.90
7934;DHT22;4012;48.896;9.192;2023-03-20T12:50:25;14.50;99.90
7934;DHT22;4012;48.896;9.192;2023-03-20T13:03:30;15.20;99.90
7934;DHT22;4012;48.896;9.192;2023-03-20T13:06:13;15.30;99.90
7934;DHT22;4012;48.896;9.192;2023-03-20T13:09:04;15.40;99.90
7934;DHT22;4012;48.896;9.192;2023-03-20T13:12:34;14.80;99.90
7934;DHT22;4012;48.896;9.192;2023-03-20T13:20:25;14.70;99.90
7934;DHT22;4012;48.896;9.192;2023-03-20T13:23:02;15.50;99.90
7934;DHT22;4012;48.896;9.192;2023-03-20T13:30:43;15.70;99.90
7934;DHT22;4012;48.896;9.192;2023-03-20T13:35:56;15.80;99.90
7934;DHT22;4012;48.896;9.192;2023-03-20T13:38:30;15.80;99.90
7934;DHT22;4012;48.896;9.192;2023-03-20T13:41:03;15.40;99.90
7934;DHT22;4012;48.896;9.192;2023-03-20T13:43:44;15.60;99.90
7934;DHT22;4012;48.896;9.192;2023-03-20T13:46:21;15.40;99.90
7934;DHT22;4012;48.896;9.192;2023-03-20T13:48:50;15.40;99.90
7934;DHT22;4012;48.896;9.192;2023-03-20T13:51:38;15.20;99.90
7934;DHT22;4012;48.896;9.192;2023-03-20T14:04:45;14.40;99.90
7934;DHT22;4012;48.896;9.192;2023-03-20T14:07:33;14.50;99.90
7934;DHT22;4012;48.896;9.192;2023-03-20T14:12:49;14.50;99.90
7934;DHT22;4012;48.896;9.192;2023-03-20T14:15:18;14.60;99.90
7934;DHT22;4012;48.896;9.192;2023-03-20T14:17:46;14.80;99.90
7934;DHT22;4012;48.896;9.192;2023-03-20T14:20:31;15.00;99.90
7934;DHT22;4012;48.896;9.192;2023-03-20T14:22:58;14.90;99.90
7934;DHT22;4012;48.896;9.192;2023-03-20T14:25:24;14.60;99.90
7934;DHT22;4012;48.896;9.192;2023-03-20T14:28:42;14.80;99.90
7934;DHT22;4012;48.896;9.192;2023-03-20T14:30:47;14.90;99.90
7934;DHT22;4012;48.896;9.192;2023-03-20T14:35:44;15.10;99.90
7934;DHT22;4012;48.896;9.192;2023-03-20T14:52:31;14.70;99.90
7934;DHT22;4012;48.896;9.192;2023-03-20T14:57:42;14.30;99.90
7934;DHT22;4012;48.896;9.192;2023-03-20T15:00:19;14.20;99.90
7934;DHT22;4012;48.896;9.192;2023-03-20T15:02:49;14.20;99.90
7934;DHT22;4012;48.896;9.192;2023-03-20T15:05:30;14.20;99.90
7934;DHT22;4012;48.896;9.192;2023-03-20T15:08:13;14.10;99.90
7934;DHT22;4012;48.896;9.192;2023-03-20T15:10:47;14.10;99.90
7934;DHT22;4012;48.896;9.192;2023-03-20T15:13:15;14.00;99.90
7934;DHT22;4012;48.896;9.192;2023-03-20T15:15:52;14.10;99.90
7934;DHT22;4012;48.896;9.192;2023-03-20T15:18:19;14.10;99.90
7934;DHT22;4012;48.896;9.192;2023-03-20T15:20:45;14.10;99.90
7934;DHT22;4012;48.896;9.192;2023-03-20T15:23:12;14.20;99.90
7934;DHT22;4012;48.896;9.192;2023-03-20T15:28:06;14.30;99.90
7934;DHT22;4012;48.896;9.192;2023-03-20T15:30:36;14.30;99.90
7934;DHT22;4012;48.896;9.192;2023-03-20T15:33:02;14.10;99.90
7934;DHT22;4012;48.896;9.192;2023-03-20T15:35:28;13.90;99.90
7934;DHT22;4012;48.896;9.192;2023-03-20T15:37:56;13.70;99.90
7934;DHT22;4012;48.896;9.192;2023-03-20T15:42:59;13.80;99.90
7934;DHT22;4012;48.896;9.192;2023-03-20T15:45:32;13.90;99.90
7934;DHT22;4012;48.896;9.192;2023-03-20T15:48:06;13.70;99.90
7934;DHT22;4012;48.896;9.192;2023-03-20T15:50:37;13.80;99.90
7934;DHT22;4012;48.896;9.192;2023-03-20T15:53:05;13.90;99.90
7934;DHT22;4012;48.896;9.192;2023-03-20T15:55:33;13.90;99.90
7934;DHT22;4012;48.896;9.192;2023-03-20T15:58:00;13.80;99.90
7934;DHT22;4012;48.896;9.192;2023-03-20T16:00:33;13.70;99.90
7934;DHT22;4012;48.896;9.192;2023-03-20T16:03:01;13.70;99.90
7934;DHT22;4012;48.896;9.192;2023-03-20T16:05:29;13.60;99.90
7934;DHT22;4012;48.896;9.192;2023-03-20T16:07:55;13.60;99.90
7934;DHT22;4012;48.896;9.192;2023-03-20T16:10:31;13.80;99.90
7934;DHT22;4012;48.896;9.192;2023-03-20T16:12:59;13.90;99.90
7934;DHT22;4012;48.896;9.192;2023-03-20T16:15:27;13.90;99.90
7934;DHT22;4012;48.896;9.192;2023-03-20T16:17:58;13.70;99.90
7934;DHT22;4012;48.896;9.192;2023-03-20T16:20:27;13.70;99.90
7934;DHT22;4012;48.896;9.192;2023-03-20T16:23:00;13.60;99.90
7934;DHT22;4012;48.896;9.192;2023-03-20T16:25:27;13.70;99.90
7934;DHT22;4012;48.896;9.192;2023-03-20T16:27:53;13.60;99.90
7934;DHT22;4012;48.896;9.192;2023-03-20T16:30:25;13.50;99.90
7934;DHT22;4012;48.896;9.192;2023-03-20T16:33:00;13.70;99.90
7934;DHT22;4012;48.896;9.192;2023-03-20T16:35:35;13.70;99.90
7934;DHT22;4012;48.896;9.192;2023-03-20T16:38:01;13.70;99.90
7934;DHT22;4012;48.896;9.192;2023-03-20T16:40:31;13.60;99.90
7934;DHT22;4012;48.896;9.192;2023-03-20T16:43:09;13.40;99.90
7934;DHT22;4012;48.896;9.192;2023-03-20T16:45:36;13.40;99.90
7934;DHT22;4012;48.896;9.192;2023-03-20T16:50:35;13.10;99.90
7934;DHT22;4012;48.896;9.192;2023-03-20T16:53:02;13.00;99.90
7934;DHT22;4012;48.896;9.192;2023-03-20T16:55:30;12.90;99.90
7934;DHT22;4012;48.896;9.192;2023-03-20T16:57:59;12.90;99.90
7934;DHT22;4012;48.896;9.192;2023-03-20T17:00:42;12.80;99.90
7934;DHT22;4012;48.896;9.192;2023-03-20T17:03:15;12.80;99.90
7934;DHT22;4012;48.896;9.192;2023-03-20T17:06:06;12.80;99.90
7934;DHT22;4012;48.896;9.192;2023-03-20T17:08:44;12.80;99.90
7934;DHT22;4012;48.896;9.192;2023-03-20T17:11:33;12.70;99.90
7934;DHT22;4012;48.896;9.192;2023-03-20T17:13:59;12.70;99.90
7934;DHT22;4012;48.896;9.192;2023-03-20T17:16:25;12.70;99.90
7934;DHT22;4012;48.896;9.192;2023-03-20T17:19:15;12.70;99.90
7934;DHT22;4012;48.896;9.192;2023-03-20T17:21:41;12.70;99.90
7934;DHT22;4012;48.896;9.192;2023-03-20T17:24:08;12.60;99.90
7934;DHT22;4012;48.896;9.192;2023-03-20T17:26:33;12.50;99.90
7934;DHT22;4012;48.896;9.192;2023-03-20T17:28:59;12.50;99.90
7934;DHT22;4012;48.896;9.192;2023-03-20T17:31:25;12.50;99.90
7934;DHT22;4012;48.896;9.192;2023-03-20T17:33:51;12.40;99.90
7934;DHT22;4012;48.896;9.192;2023-03-20T17:36:27;12.40;99.90
7934;DHT22;4012;48.896;9.192;2023-03-20T17:38:55;12.30;99.90
7934;DHT22;4012;48.896;9.192;2023-03-20T17:41:21;12.40;99.90
7934;DHT22;4012;48.896;9.192;2023-03-20T17:43:48;12.40;99.90
7934;DHT22;4012;48.896;9.192;2023-03-20T17:46:19;12.40;99.90
7934;DHT22;4012;48.896;9.192;2023-03-20T17:48:47;12.30;99.90
7934;DHT22;4012;48.896;9.192;2023-03-20T17:51:13;12.20;99.90
7934;DHT22;4012;48.896;9.192;2023-03-20T17:53:39;12.30;99.90
7934;DHT22;4012;48.896;9.192;2023-03-20T17:56:10;12.20;99.90
7934;DHT22;4012;48.896;9.192;2023-03-20T17:58:37;12.30;99.90
7934;DHT22;4012;48.896;9.192;2023-03-20T18:01:04;12.30;99.90
7934;DHT22;4012;48.896;9.192;2023-03-20T18:03:31;12.20;99.90
7934;DHT22;4012;48.896;9.192;2023-03-20T18:05:57;12.20;99.90
7934;DHT22;4012;48.896;9.192;2023-03-20T18:08:23;12.20;99.90
7934;DHT22;4012;48.896;9.192;2023-03-20T18:10:50;12.20;99.90
7934;DHT22;4012;48.896;9.192;2023-03-20T18:13:17;12.20;99.90
7934;DHT22;4012;48.896;9.192;2023-03-20T18:15:45;12.20;99.90
7934;DHT22;4012;48.896;9.192;2023-03-20T18:18:11;12.20;99.90
7934;DHT22;4012;48.896;9.192;2023-03-20T18:20:38;12.20;99.90
7934;DHT22;4012;48.896;9.192;2023-03-20T18:23:07;12.10;99.90
7934;DHT22;4012;48.896;9.192;2023-03-20T18:25:34;12.20;99.90
7934;DHT22;4012;48.896;9.192;2023-03-20T18:28:02;12.20;99.90
7934;DHT22;4012;48.896;9.192;2023-03-20T18:30:37;12.20;99.90
7934;DHT22;4012;48.896;9.192;2023-03-20T18:33:04;12.10;99.90
7934;DHT22;4012;48.896;9.192;2023-03-20T18:35:30;12.10;99.90
7934;DHT22;4012;48.896;9.192;2023-03-20T18:37:56;12.10;99.90
7934;DHT22;4012;48.896;9.192;2023-03-20T18:40:25;12.10;99.90